Time;durP1;ratioP1;P1;durP2;ratioP2;P2;SDS_P1;SDS_P2;PMS_P1;PMS_P2;Temp;Humidity;BMP_temperature;BMP_pressure;BME280_temperature;BME280_humidity;BME280_pressure;Samples;Min_cycle;Max_cycle;Signal;HPM_P1;HPM_P2
2023/01/25 00:00:23;;;;;;;;;;;;;;;;;;6129609;23;19917;-89
2023/01/25 00:02:49;;;;;;;;;;;;;;;;;;6154759;23;19920;-89
2023/01/25 00:05:15;;;;;;;;;;;;;;;;;;6154809;23;19917;-89
2023/01/25 00:07:41;;;;;;;;;;;;;;;;;;6130107;23;19956;-89
2023/01/25 00:10:07;;;;;;;;;;;;;;;;;;6128571;23;19925;-89
2023/01/25 00:12:33;;;;;;;;;;;;;;;;;;6129291;23;19920;-90
2023/01/25 00:14:58;;;;;;;;;;;;;;;;;;6129933;23;20232;-90
2023/01/25 00:17:24;;;;;;;;;;;;;;;;;;6105344;23;19916;-90
2023/01/25 00:19:50;;;;;;;;;;;;;;;;;;6129227;23;19917;-90
2023/01/25 00:22:16;;;;;;;;;;;;;;;;;;6129613;23;19932;-89
2023/01/25 00:24:42;;;;;;;;;;;;;;;;;;6105172;23;19916;-90
2023/01/25 00:27:08;;;;;;;;;;;;;;;;;;6129800;23;19943;-90
2023/01/25 00:29:34;;;;;;;;;;;;;;;;;;6104732;23;19917;-90
2023/01/25 00:32:00;;;;;;;;;;;;;;;;;;6104269;23;19965;-90
2023/01/25 00:34:26;;;;;;;;;;;;;;;;;;6104486;23;19948;-90
2023/01/25 00:39:48;;;;;;;;;;;;;;;;;;6128030;23;20270;-90
2023/01/25 00:42:13;;;;;;;;;;;;;;;;;;6128887;23;19925;-90
2023/01/25 00:44:42;;;;;;;;;;;;;;;;;;6105277;23;20316;-90
2023/01/25 00:47:08;;;;;;;;;;;;;;;;;;6129722;23;19955;-90
2023/01/25 00:49:34;;;;;;;;;;;;;;;;;;6103998;23;19916;-90
2023/01/25 00:52:00;;;;;;;;;;;;;;;;;;6104521;23;20254;-90
2023/01/25 00:54:26;;;;;;;;;;;;;;;;;;6104915;23;19920;-90
2023/01/25 00:56:52;;;;;;;;;;;;;;;;;;6104019;23;19967;-90
2023/01/25 00:59:18;;;;;;;;;;;;;;;;;;6104733;23;19996;-91
2023/01/25 01:01:44;;;;;;;;;;;;;;;;;;6104980;23;19960;-90
2023/01/25 01:04:10;;;;;;;;;;;;;;;;;;6105373;23;19917;-90
2023/01/25 01:06:36;;;;;;;;;;;;;;;;;;6105145;23;20100;-90
2023/01/25 01:09:02;;;;;;;;;;;;;;;;;;6104441;23;20228;-90
2023/01/25 01:11:28;;;;;;;;;;;;;;;;;;6105222;23;19917;-90
2023/01/25 01:13:53;;;;;;;;;;;;;;;;;;6118539;23;19917;-90
2023/01/25 01:16:19;;;;;;;;;;;;;;;;;;6129697;23;19924;-90
2023/01/25 01:18:45;;;;;;;;;;;;;;;;;;6154099;23;19924;-89
2023/01/25 01:21:11;;;;;;;;;;;;;;;;;;6129370;23;20394;-90
2023/01/25 01:23:37;;;;;;;;;;;;;;;;;;6128564;23;19917;-91
2023/01/25 01:26:03;;;;;;;;;;;;;;;;;;6129245;23;20482;-90
2023/01/25 01:28:29;;;;;;;;;;;;;;;;;;6129550;23;19917;-90
2023/01/25 01:30:55;;;;;;;;;;;;;;;;;;6153638;23;20039;-89
2023/01/25 01:33:21;;;;;;;;;;;;;;;;;;6129568;23;20390;-91
2023/01/25 01:35:47;;;;;;;;;;;;;;;;;;6129626;23;19921;-89
2023/01/25 01:38:13;;;;;;;;;;;;;;;;;;6129497;23;19916;-90
2023/01/25 01:40:38;;;;;;;;;;;;;;;;;;6153675;23;19916;-90
2023/01/25 01:43:04;;;;;;;;;;;;;;;;;;6129289;23;20294;-90
2023/01/25 01:45:30;;;;;;;;;;;;;;;;;;6129426;23;19979;-90
2023/01/25 01:47:56;;;;;;;;;;;;;;;;;;6129271;23;20331;-90
2023/01/25 01:50:22;;;;;;;;;;;;;;;;;;6128905;23;19927;-90
2023/01/25 01:52:48;;;;;;;;;;;;;;;;;;6129265;23;19916;-90
2023/01/25 01:55:14;;;;;;;;;;;;;;;;;;6129420;23;19955;-90
2023/01/25 01:57:40;;;;;;;;;;;;;;;;;;6129574;23;19917;-90
2023/01/25 02:00:08;;;;;;;;;;;;;;;;;;6128748;23;19920;-90
2023/01/25 02:02:34;;;;;;;;;;;;;;;;;;6130195;23;19920;-90
2023/01/25 02:05:00;;;;;;;;;;;;;;;;;;6155799;23;20358;-90
2023/01/25 02:07:26;;;;;;;;;;;;;;;;;;6131184;23;19924;-90
2023/01/25 02:09:52;;;;;;;;;;;;;;;;;;6155265;23;19916;-90
2023/01/25 02:12:18;;;;;;;;;;;;;;;;;;6131279;23;20242;-90
2023/01/25 02:14:44;;;;;;;;;;;;;;;;;;6131012;23;19926;-90
2023/01/25 02:17:10;;;;;;;;;;;;;;;;;;6155757;23;19967;-90
2023/01/25 02:19:35;;;;;;;;;;;;;;;;;;6155132;23;19916;-90
2023/01/25 02:22:06;;;;;;;;;;;;;;;;;;6155612;23;20247;-90
2023/01/25 02:24:32;;;;;;;;;;;;;;;;;;6155559;23;20259;-90
2023/01/25 02:26:58;;;;;;;;;;;;;;;;;;6131086;23;19988;-90
2023/01/25 02:29:24;;;;;;;;;;;;;;;;;;6130496;23;19917;-91
2023/01/25 02:31:51;;;;;;;;;;;;;;;;;;6130802;23;19917;-90
2023/01/25 02:34:17;;;;;;;;;;;;;;;;;;6155651;23;19928;-90
2023/01/25 02:36:43;;;;;;;;;;;;;;;;;;6130940;23;19917;-90
2023/01/25 02:39:09;;;;;;;;;;;;;;;;;;6130432;23;20929;-90
2023/01/25 02:41:35;;;;;;;;;;;;;;;;;;6155498;23;19928;-90
2023/01/25 02:44:00;;;;;;;;;;;;;;;;;;6154677;23;19916;-90
2023/01/25 02:46:46;;;;;;;;;;;;;;;;;;6130308;23;19921;-90
2023/01/25 02:49:12;;;;;;;;;;;;;;;;;;6130427;23;19992;-90
2023/01/25 02:51:38;;;;;;;;;;;;;;;;;;6155508;23;19952;-90
2023/01/25 02:54:04;;;;;;;;;;;;;;;;;;6130838;23;19924;-90
2023/01/25 02:56:30;;;;;;;;;;;;;;;;;;6131103;23;19923;-90
2023/01/25 02:58:56;;;;;;;;;;;;;;;;;;6130228;23;19922;-90
2023/01/25 03:01:22;;;;;;;;;;;;;;;;;;6130695;23;19921;-90
2023/01/25 03:03:48;;;;;;;;;;;;;;;;;;6130983;23;19923;-91
2023/01/25 03:06:14;;;;;;;;;;;;;;;;;;6130744;23;19917;-90
2023/01/25 03:08:40;;;;;;;;;;;;;;;;;;6130544;23;19917;-90
2023/01/25 03:11:06;;;;;;;;;;;;;;;;;;6130263;23;19916;-90
2023/01/25 03:13:31;;;;;;;;;;;;;;;;;;6130412;23;19917;-90
2023/01/25 03:15:57;;;;;;;;;;;;;;;;;;6155482;23;19943;-90
2023/01/25 03:18:23;;;;;;;;;;;;;;;;;;6155350;23;19916;-90
2023/01/25 03:20:49;;;;;;;;;;;;;;;;;;6129994;23;20250;-90
2023/01/25 03:23:15;;;;;;;;;;;;;;;;;;6130457;23;20258;-90
2023/01/25 03:25:41;;;;;;;;;;;;;;;;;;6130701;23;19920;-90
2023/01/25 03:28:07;;;;;;;;;;;;;;;;;;6130539;23;19920;-90
2023/01/25 03:30:33;;;;;;;;;;;;;;;;;;6154732;23;20345;-90
2023/01/25 03:32:59;;;;;;;;;;;;;;;;;;6130614;23;19968;-90
2023/01/25 03:35:25;;;;;;;;;;;;;;;;;;6130507;23;20332;-91
2023/01/25 03:37:51;;;;;;;;;;;;;;;;;;6130455;23;19916;-90
2023/01/25 03:40:17;;;;;;;;;;;;;;;;;;6130104;23;20521;-90
2023/01/25 03:42:42;;;;;;;;;;;;;;;;;;6130290;23;19921;-90
2023/01/25 03:45:08;;;;;;;;;;;;;;;;;;6130461;23;19917;-90
2023/01/25 03:47:34;;;;;;;;;;;;;;;;;;6130361;23;20335;-91
2023/01/25 03:50:00;;;;;;;;;;;;;;;;;;6129906;23;19923;-91
2023/01/25 03:52:27;;;;;;;;;;;;;;;;;;6130393;23;20347;-90
2023/01/25 03:54:53;;;;;;;;;;;;;;;;;;6130239;23;19916;-90
2023/01/25 03:57:19;;;;;;;;;;;;;;;;;;6130208;23;19923;-90
2023/01/25 03:59:44;;;;;;;;;;;;;;;;;;6129701;23;19916;-91
2023/01/25 04:02:11;;;;;;;;;;;;;;;;;;6154754;23;19920;-90
2023/01/25 04:04:37;;;;;;;;;;;;;;;;;;6154808;23;19927;-90
2023/01/25 04:07:03;;;;;;;;;;;;;;;;;;6130358;23;19916;-91
2023/01/25 04:09:29;;;;;;;;;;;;;;;;;;6129636;23;20255;-90
2023/01/25 04:11:55;;;;;;;;;;;;;;;;;;6154799;23;20327;-91
2023/01/25 04:14:21;;;;;;;;;;;;;;;;;;6130101;23;19916;-91
2023/01/25 04:16:47;;;;;;;;;;;;;;;;;;6154851;23;19920;-91
2023/01/25 04:19:13;;;;;;;;;;;;;;;;;;6129776;23;19923;-90
2023/01/25 04:21:39;;;;;;;;;;;;;;;;;;6130115;23;20251;-90
2023/01/25 04:24:04;;;;;;;;;;;;;;;;;;6154714;23;19917;-91
2023/01/25 04:26:30;;;;;;;;;;;;;;;;;;6154187;23;19916;-90
2023/01/25 04:28:56;;;;;;;;;;;;;;;;;;6129447;23;19975;-90
2023/01/25 04:31:22;;;;;;;;;;;;;;;;;;6154638;23;20327;-91
2023/01/25 04:33:48;;;;;;;;;;;;;;;;;;6130072;23;19995;-90
2023/01/25 04:36:14;;;;;;;;;;;;;;;;;;6154682;23;19992;-90
2023/01/25 04:38:41;;;;;;;;;;;;;;;;;;6129787;23;20335;-90
2023/01/25 04:41:06;;;;;;;;;;;;;;;;;;6129682;23;19920;-90
2023/01/25 04:43:32;;;;;;;;;;;;;;;;;;6154437;23;19970;-91
2023/01/25 04:45:58;;;;;;;;;;;;;;;;;;6130025;23;19921;-91
2023/01/25 04:48:24;;;;;;;;;;;;;;;;;;6130095;23;20255;-91
2023/01/25 04:50:50;;;;;;;;;;;;;;;;;;6129523;23;19916;-90
2023/01/25 04:53:16;;;;;;;;;;;;;;;;;;6129934;23;19917;-91
2023/01/25 04:55:42;;;;;;;;;;;;;;;;;;6129849;23;20344;-90
2023/01/25 04:58:08;;;;;;;;;;;;;;;;;;6129901;23;19916;-90
2023/01/25 05:00:34;;;;;;;;;;;;;;;;;;6154048;23;19948;-91
2023/01/25 05:03:00;;;;;;;;;;;;;;;;;;6152342;23;19920;-91
2023/01/25 05:05:26;;;;;;;;;;;;;;;;;;6153684;23;19932;-89
2023/01/25 05:07:52;;;;;;;;;;;;;;;;;;6128898;23;19918;-89
2023/01/25 05:10:18;;;;;;;;;;;;;;;;;;6128630;23;19916;-89
2023/01/25 05:12:44;;;;;;;;;;;;;;;;;;6153946;23;19916;-89
2023/01/25 05:15:10;;;;;;;;;;;;;;;;;;6129149;23;19927;-89
2023/01/25 05:17:35;;;;;;;;;;;;;;;;;;6153648;23;19923;-90
2023/01/25 05:20:01;;;;;;;;;;;;;;;;;;6128487;23;20381;-89
2023/01/25 05:22:27;;;;;;;;;;;;;;;;;;6153581;23;19999;-89
2023/01/25 05:24:53;;;;;;;;;;;;;;;;;;6128888;23;19988;-89
2023/01/25 05:27:19;;;;;;;;;;;;;;;;;;6129416;23;20386;-90
2023/01/25 05:29:45;;;;;;;;;;;;;;;;;;6128527;23;19920;-90
2023/01/25 05:32:11;;;;;;;;;;;;;;;;;;6128971;23;19917;-89
2023/01/25 05:34:37;;;;;;;;;;;;;;;;;;6153735;23;20293;-90
2023/01/25 05:37:03;;;;;;;;;;;;;;;;;;6129396;23;20295;-89
2023/01/25 05:39:29;;;;;;;;;;;;;;;;;;6154827;23;19967;-89
2023/01/25 05:41:55;;;;;;;;;;;;;;;;;;6155425;23;19967;-90
2023/01/25 05:44:21;;;;;;;;;;;;;;;;;;6130963;23;19920;-89
2023/01/25 05:46:46;;;;;;;;;;;;;;;;;;6130904;23;19920;-89
2023/01/25 05:49:12;;;;;;;;;;;;;;;;;;6130324;23;19924;-89
2023/01/25 05:51:38;;;;;;;;;;;;;;;;;;6130768;23;19948;-89
2023/01/25 05:54:04;;;;;;;;;;;;;;;;;;6130655;23;20343;-89
2023/01/25 05:56:30;;;;;;;;;;;;;;;;;;6130531;23;19917;-90
2023/01/25 05:58:56;;;;;;;;;;;;;;;;;;6154878;23;19917;-89
2023/01/25 06:01:22;;;;;;;;;;;;;;;;;;6130644;23;20350;-89
2023/01/25 06:03:48;;;;;;;;;;;;;;;;;;6155107;23;19923;-90
2023/01/25 06:06:14;;;;;;;;;;;;;;;;;;6130729;23;19916;-89
2023/01/25 06:08:40;;;;;;;;;;;;;;;;;;6130426;23;19971;-89
2023/01/25 06:11:06;;;;;;;;;;;;;;;;;;6129801;23;19927;-88
2023/01/25 06:13:32;;;;;;;;;;;;;;;;;;6130373;23;19991;-89
2023/01/25 06:15:58;;;;;;;;;;;;;;;;;;6130764;23;19916;-89
2023/01/25 06:18:23;;;;;;;;;;;;;;;;;;6130561;23;20351;-89
2023/01/25 06:20:49;;;;;;;;;;;;;;;;;;6129953;23;19916;-89
2023/01/25 06:23:15;;;;;;;;;;;;;;;;;;6130285;23;19924;-89
2023/01/25 06:25:41;;;;;;;;;;;;;;;;;;6130650;23;20343;-89
2023/01/25 06:28:07;;;;;;;;;;;;;;;;;;6130391;23;19967;-89
2023/01/25 06:30:33;;;;;;;;;;;;;;;;;;6130011;23;19920;-89
2023/01/25 06:32:59;;;;;;;;;;;;;;;;;;6155040;23;20343;-90
2023/01/25 06:35:25;;;;;;;;;;;;;;;;;;6154800;23;19921;-88
2023/01/25 06:37:51;;;;;;;;;;;;;;;;;;6130459;23;20327;-89
2023/01/25 06:40:17;;;;;;;;;;;;;;;;;;6129776;23;19920;-89
2023/01/25 06:42:44;;;;;;;;;;;;;;;;;;6130351;23;19921;-89
2023/01/25 06:45:10;;;;;;;;;;;;;;;;;;6130474;23;19917;-89
2023/01/25 06:47:36;;;;;;;;;;;;;;;;;;6130337;23;19940;-90
2023/01/25 06:50:02;;;;;;;;;;;;;;;;;;6129579;23;19921;-90
2023/01/25 06:52:29;;;;;;;;;;;;;;;;;;6130205;23;19917;-90
2023/01/25 06:54:55;;;;;;;;;;;;;;;;;;6129990;23;19917;-90
2023/01/25 06:57:21;;;;;;;;;;;;;;;;;;6130301;23;19923;-90
2023/01/25 06:59:47;;;;;;;;;;;;;;;;;;6129601;23;20259;-90
2023/01/25 07:02:13;;;;;;;;;;;;;;;;;;6130428;23;19928;-90
2023/01/25 07:04:38;;;;;;;;;;;;;;;;;;6130180;23;19924;-90
2023/01/25 07:07:04;;;;;;;;;;;;;;;;;;6129244;23;20579;-91
2023/01/25 07:09:30;;;;;;;;;;;;;;;;;;6153676;23;19917;-90
2023/01/25 07:11:56;;;;;;;;;;;;;;;;;;6129891;23;19916;-91
2023/01/25 07:14:22;;;;;;;;;;;;;;;;;;6129388;23;20251;-89
2023/01/25 07:16:48;;;;;;;;;;;;;;;;;;6129689;23;20247;-91
2023/01/25 07:19:14;;;;;;;;;;;;;;;;;;6129143;23;19916;-90
2023/01/25 07:21:40;;;;;;;;;;;;;;;;;;6154051;23;20331;-91
2023/01/25 07:24:06;;;;;;;;;;;;;;;;;;6129486;23;19916;-91
2023/01/25 07:26:32;;;;;;;;;;;;;;;;;;6129295;23;19916;-91
2023/01/25 07:28:58;;;;;;;;;;;;;;;;;;6153679;23;20410;-91
2023/01/25 07:31:24;;;;;;;;;;;;;;;;;;6129425;23;19917;-91
2023/01/25 07:33:50;;;;;;;;;;;;;;;;;;6129878;23;20345;-90
2023/01/25 07:36:16;;;;;;;;;;;;;;;;;;6128028;23;19927;-91
2023/01/25 07:38:59;;;;;;;;;;;;;;;;;;6129493;23;20343;-90
2023/01/25 07:41:25;;;;;;;;;;;;;;;;;;6129783;23;19920;-90
2023/01/25 07:43:51;;;;;;;;;;;;;;;;;;6129930;23;19916;-90
2023/01/25 07:46:17;;;;;;;;;;;;;;;;;;6129298;23;19920;-90
2023/01/25 07:48:43;;;;;;;;;;;;;;;;;;6129657;23;20335;-93
2023/01/25 07:51:28;;;;;;;;;;;;;;;;;;6129327;23;20251;-92
2023/01/25 07:53:54;;;;;;;;;;;;;;;;;;6154807;23;19983;-94
2023/01/25 07:56:20;;;;;;;;;;;;;;;;;;6130006;23;19920;-90
2023/01/25 07:58:46;;;;;;;;;;;;;;;;;;6129107;23;19951;-91
2023/01/25 08:01:12;;;;;;;;;;;;;;;;;;6128812;23;19952;-91
2023/01/25 08:03:38;;;;;;;;;;;;;;;;;;6129728;23;19924;-93
2023/01/25 08:06:04;;;;;;;;;;;;;;;;;;6154508;23;19921;-93
2023/01/25 08:08:32;;;;;;;;;;;;;;;;;;6129834;23;19998;-95
2023/01/25 08:10:58;;;;;;;;;;;;;;;;;;6129898;23;20011;-92
2023/01/25 08:13:24;;;;;;;;;;;;;;;;;;6128765;23;19924;-92
2023/01/25 08:15:50;;;;;;;;;;;;;;;;;;6129622;23;19917;-92
2023/01/25 08:18:16;;;;;;;;;;;;;;;;;;6128956;23;19940;-91
2023/01/25 08:20:42;;;;;;;;;;;;;;;;;;6128715;23;19964;-90
2023/01/25 08:23:08;;;;;;;;;;;;;;;;;;6129074;23;19920;-92
2023/01/25 08:25:34;;;;;;;;;;;;;;;;;;6129968;23;19916;-92
2023/01/25 08:28:00;;;;;;;;;;;;;;;;;;6131141;23;19917;-93
2023/01/25 08:30:26;;;;;;;;;;;;;;;;;;6154475;23;20015;-93
2023/01/25 08:32:52;;;;;;;;;;;;;;;;;;6154318;23;20258;-93
2023/01/25 08:35:18;;;;;;;;;;;;;;;;;;6154241;23;19916;-91
2023/01/25 08:37:44;;;;;;;;;;;;;;;;;;6129545;23;19939;-93
2023/01/25 08:40:12;;;;;;;;;;;;;;;;;;6129311;23;19924;-94
2023/01/25 08:42:38;;;;;;;;;;;;;;;;;;6131748;23;19925;-94
2023/01/25 08:45:04;;;;;;;;;;;;;;;;;;6159381;23;19971;-94
2023/01/25 08:47:30;;;;;;;;;;;;;;;;;;6161625;23;19927;-95
2023/01/25 08:49:56;;;;;;;;;;;;;;;;;;6132776;23;19917;-94
2023/01/25 08:52:22;;;;;;;;;;;;;;;;;;6129967;23;19923;-95
2023/01/25 08:54:48;;;;;;;;;;;;;;;;;;6129050;23;19963;-91
2023/01/25 08:57:14;;;;;;;;;;;;;;;;;;6128878;23;19916;-89
2023/01/25 09:02:43;;;;;;;;;;;;;;;;;;6164580;23;19943;-90
2023/01/25 09:05:09;;;;;;;;;;;;;;;;;;6128658;23;19952;-92
2023/01/25 09:07:37;;;;;;;;;;;;;;;;;;6128499;23;20335;-91
2023/01/25 09:10:03;;;;;;;;;;;;;;;;;;6127991;23;19967;-89
2023/01/25 09:12:30;;;;;;;;;;;;;;;;;;6128988;23;19917;-89
2023/01/25 09:14:56;;;;;;;;;;;;;;;;;;6130093;23;19987;-89
2023/01/25 09:17:22;;;;;;;;;;;;;;;;;;6130241;23;20326;-92
2023/01/25 09:19:48;;;;;;;;;;;;;;;;;;6130508;23;19964;-92
2023/01/25 09:22:13;;;;;;;;;;;;;;;;;;6130656;23;19920;-91
2023/01/25 09:24:42;;;;;;;;;;;;;;;;;;6129681;23;19995;-90
2023/01/25 09:27:07;;;;;;;;;;;;;;;;;;6130886;23;19928;-91
2023/01/25 09:32:37;;;;;;;;;;;;;;;;;;6166645;23;20443;-90
2023/01/25 09:35:11;;;;;;;;;;;;;;;;;;6155061;23;19916;-92
2023/01/25 09:37:37;;;;;;;;;;;;;;;;;;6130877;23;19995;-89
2023/01/25 09:40:03;;;;;;;;;;;;;;;;;;6155367;23;19995;-92
2023/01/25 09:45:33;;;;;;;;;;;;;;;;;;6167111;23;19915;-93
2023/01/25 09:47:59;;;;;;;;;;;;;;;;;;6131307;23;20343;-92
2023/01/25 09:50:25;;;;;;;;;;;;;;;;;;6130815;23;19924;-90
2023/01/25 09:52:52;;;;;;;;;;;;;;;;;;6129948;23;19917;-90
2023/01/25 09:55:18;;;;;;;;;;;;;;;;;;6130619;23;19928;-91
2023/01/25 09:57:44;;;;;;;;;;;;;;;;;;6132343;23;19917;-93
2023/01/25 10:00:10;;;;;;;;;;;;;;;;;;6131930;23;19917;-91
2023/01/25 10:02:38;;;;;;;;;;;;;;;;;;6131774;23;19921;-89
2023/01/25 10:05:04;;;;;;;;;;;;;;;;;;6132861;23;19983;-92
2023/01/25 10:07:30;;;;;;;;;;;;;;;;;;6131386;23;19916;-90
2023/01/25 10:09:56;;;;;;;;;;;;;;;;;;6130552;23;19939;-90
2023/01/25 10:12:22;;;;;;;;;;;;;;;;;;6129686;23;19983;-88
2023/01/25 10:14:48;;;;;;;;;;;;;;;;;;6129980;23;19975;-91
2023/01/25 10:17:14;;;;;;;;;;;;;;;;;;6129967;23;19917;-94
2023/01/25 10:19:40;;;;;;;;;;;;;;;;;;6129555;23;19965;-88
2023/01/25 10:22:06;;;;;;;;;;;;;;;;;;6130678;23;20003;-92
2023/01/25 10:27:36;;;;;;;;;;;;;;;;;;6166741;23;19987;-93
2023/01/25 10:30:02;;;;;;;;;;;;;;;;;;6129380;23;20228;-92
2023/01/25 10:32:30;;;;;;;;;;;;;;;;;;6129851;23;19924;-91
2023/01/25 10:34:56;;;;;;;;;;;;;;;;;;6155126;23;19971;-90
2023/01/25 10:37:22;;;;;;;;;;;;;;;;;;6129954;23;20063;-91
2023/01/25 10:39:48;;;;;;;;;;;;;;;;;;6129563;23;19917;-90
2023/01/25 10:42:33;;;;;;;;;;;;;;;;;;6165949;23;20051;-89
2023/01/25 10:45:00;;;;;;;;;;;;;;;;;;6128456;23;19965;-90
2023/01/25 10:47:26;;;;;;;;;;;;;;;;;;6129923;23;19916;-88
2023/01/25 10:49:54;;;;;;;;;;;;;;;;;;6129036;23;20341;-88
2023/01/25 10:52:20;;;;;;;;;;;;;;;;;;6129269;23;19920;-89
2023/01/25 10:54:49;;;;;;;;;;;;;;;;;;6129818;23;20242;-87
2023/01/25 10:57:15;;;;;;;;;;;;;;;;;;6154040;23;19991;-86
2023/01/25 10:59:40;;;;;;;;;;;;;;;;;;6128769;23;19948;-87
2023/01/25 11:02:06;;;;;;;;;;;;;;;;;;6153041;23;19928;-87
2023/01/25 11:04:37;;;;;;;;;;;;;;;;;;6129804;23;19917;-87
2023/01/25 11:07:04;;;;;;;;;;;;;;;;;;6129099;23;19917;-88
2023/01/25 11:09:30;;;;;;;;;;;;;;;;;;6128996;23;20279;-88
2023/01/25 11:11:56;;;;;;;;;;;;;;;;;;6129210;23;19923;-89
2023/01/25 11:14:25;;;;;;;;;;;;;;;;;;6126693;23;19960;-89
2023/01/25 11:16:58;;;;;;;;;;;;;;;;;;6151502;23;19917;-88
2023/01/25 11:19:25;;;;;;;;;;;;;;;;;;6128531;23;19971;-89
2023/01/25 11:21:51;;;;;;;;;;;;;;;;;;6154035;23;19920;-89
2023/01/25 11:24:17;;;;;;;;;;;;;;;;;;6127117;23;20011;-89
2023/01/25 11:26:43;;;;;;;;;;;;;;;;;;6128153;23;19948;-88
2023/01/25 11:29:09;;;;;;;;;;;;;;;;;;6128319;23;19921;-88
2023/01/25 11:31:35;;;;;;;;;;;;;;;;;;6129386;23;20250;-89
2023/01/25 11:34:01;;;;;;;;;;;;;;;;;;6128785;23;20335;-89
2023/01/25 11:36:27;;;;;;;;;;;;;;;;;;6127366;23;20252;-89
2023/01/25 11:38:52;;;;;;;;;;;;;;;;;;6128287;23;20251;-89
2023/01/25 11:41:18;;;;;;;;;;;;;;;;;;6128856;23;19916;-89
2023/01/25 11:43:44;;;;;;;;;;;;;;;;;;6127022;23;19917;-89
2023/01/25 11:46:12;;;;;;;;;;;;;;;;;;6127883;23;20353;-88
2023/01/25 11:48:42;;;;;;;;;;;;;;;;;;6129171;23;19924;-89
2023/01/25 11:51:08;;;;;;;;;;;;;;;;;;6128343;23;20254;-89
2023/01/25 11:53:34;;;;;;;;;;;;;;;;;;6128820;23;19959;-89
2023/01/25 11:56:00;;;;;;;;;;;;;;;;;;6128311;23;19987;-88
2023/01/25 11:58:26;;;;;;;;;;;;;;;;;;6127602;23;20354;-89
2023/01/25 12:00:52;;;;;;;;;;;;;;;;;;6127918;23;19959;-89
2023/01/25 12:03:17;;;;;;;;;;;;;;;;;;6127534;23;19925;-90
2023/01/25 12:05:43;;;;;;;;;;;;;;;;;;6128600;23;19916;-88
2023/01/25 12:08:09;;;;;;;;;;;;;;;;;;6127748;23;19940;-88
2023/01/25 12:10:35;;;;;;;;;;;;;;;;;;6127621;23;19924;-88
2023/01/25 12:13:01;;;;;;;;;;;;;;;;;;6128568;23;19928;-89
2023/01/25 12:15:27;;;;;;;;;;;;;;;;;;6104070;23;20004;-88
2023/01/25 12:17:53;;;;;;;;;;;;;;;;;;6104381;23;20288;-88
2023/01/25 12:20:19;;;;;;;;;;;;;;;;;;6102452;23;19944;-89
2023/01/25 12:22:45;;;;;;;;;;;;;;;;;;6104006;23;19920;-88
2023/01/25 12:25:11;;;;;;;;;;;;;;;;;;6128048;23;19924;-88
2023/01/25 12:27:39;;;;;;;;;;;;;;;;;;6104263;23;19952;-89
2023/01/25 12:30:05;;;;;;;;;;;;;;;;;;6102413;23;19927;-88
2023/01/25 12:38:03;;;;;;;;;;;;;;;;;;6128617;23;20235;-88
2023/01/25 12:43:08;;;;;;;;;;;;;;;;;;6127924;23;19920;-88
2023/01/25 12:45:34;;;;;;;;;;;;;;;;;;6127807;23;19992;-89
2023/01/25 12:50:45;;;;;;;;;;;;;;;;;;6127626;23;20253;-89
2023/01/25 12:53:11;;;;;;;;;;;;;;;;;;6103974;23;19924;-89
2023/01/25 12:55:41;;;;;;;;;;;;;;;;;;6103768;23;19966;-89
2023/01/25 12:58:07;;;;;;;;;;;;;;;;;;6103950;23;19931;-89
2023/01/25 13:00:33;;;;;;;;;;;;;;;;;;6103454;23;19917;-89
2023/01/25 13:02:59;;;;;;;;;;;;;;;;;;6103554;23;20255;-89
2023/01/25 13:05:25;;;;;;;;;;;;;;;;;;6103978;23;19916;-89
2023/01/25 13:07:53;;;;;;;;;;;;;;;;;;6103946;23;19917;-89
2023/01/25 13:10:19;;;;;;;;;;;;;;;;;;6103252;23;19924;-89
2023/01/25 13:12:45;;;;;;;;;;;;;;;;;;6128522;23;19923;-89
2023/01/25 13:15:11;;;;;;;;;;;;;;;;;;6126762;23;19948;-89
2023/01/25 13:17:39;;;;;;;;;;;;;;;;;;6152852;23;20267;-89
2023/01/25 13:20:05;;;;;;;;;;;;;;;;;;6127753;23;19917;-89
2023/01/25 13:22:40;;;;;;;;;;;;;;;;;;6127084;23;19927;-89
2023/01/25 13:25:06;;;;;;;;;;;;;;;;;;6127886;23;19916;-87
2023/01/25 13:27:35;;;;;;;;;;;;;;;;;;6128405;23;19992;-88
2023/01/25 13:30:05;;;;;;;;;;;;;;;;;;6152269;23;19921;-88
2023/01/25 13:32:31;;;;;;;;;;;;;;;;;;6128270;23;19916;-88
2023/01/25 13:34:57;;;;;;;;;;;;;;;;;;6128424;23;19975;-88
2023/01/25 13:37:23;;;;;;;;;;;;;;;;;;6127634;23;19974;-89
2023/01/25 13:39:49;;;;;;;;;;;;;;;;;;6127664;23;20321;-89
2023/01/25 13:42:15;;;;;;;;;;;;;;;;;;6127809;23;19920;-89
2023/01/25 13:44:41;;;;;;;;;;;;;;;;;;6128048;23;20256;-88
2023/01/25 13:47:07;;;;;;;;;;;;;;;;;;6152452;23;19969;-88
2023/01/25 13:49:33;;;;;;;;;;;;;;;;;;6127717;23;19917;-89
2023/01/25 13:51:59;;;;;;;;;;;;;;;;;;6152828;23;19979;-89
2023/01/25 13:54:25;;;;;;;;;;;;;;;;;;6127666;23;19951;-89
2023/01/25 13:56:51;;;;;;;;;;;;;;;;;;6127049;23;19921;-89
2023/01/25 13:59:28;;;;;;;;;;;;;;;;;;6128196;23;19999;-89
2023/01/25 14:01:56;;;;;;;;;;;;;;;;;;6129761;23;19920;-89
2023/01/25 14:04:21;;;;;;;;;;;;;;;;;;6130066;23;19917;-89
2023/01/25 14:06:47;;;;;;;;;;;;;;;;;;6130076;23;20031;-89
2023/01/25 14:09:13;;;;;;;;;;;;;;;;;;6129168;23;19971;-89
2023/01/25 14:11:41;;;;;;;;;;;;;;;;;;6129638;23;19917;-89
2023/01/25 14:14:07;;;;;;;;;;;;;;;;;;6128805;23;19948;-89
2023/01/25 14:16:37;;;;;;;;;;;;;;;;;;6128219;23;19939;-89
2023/01/25 14:19:03;;;;;;;;;;;;;;;;;;6128538;23;19924;-89
2023/01/25 14:21:29;;;;;;;;;;;;;;;;;;6153711;23;19925;-89
2023/01/25 14:23:55;;;;;;;;;;;;;;;;;;6129504;23;19922;-89
2023/01/25 14:26:21;;;;;;;;;;;;;;;;;;6129168;23;19922;-89
2023/01/25 14:28:47;;;;;;;;;;;;;;;;;;6129303;23;20023;-89
2023/01/25 14:31:13;;;;;;;;;;;;;;;;;;6128728;23;19916;-89
2023/01/25 14:33:43;;;;;;;;;;;;;;;;;;6128355;23;19917;-89
2023/01/25 14:36:09;;;;;;;;;;;;;;;;;;6129334;23;19916;-89
2023/01/25 14:38:37;;;;;;;;;;;;;;;;;;6129440;23;20521;-89
2023/01/25 14:41:05;;;;;;;;;;;;;;;;;;6152310;23;19924;-89
2023/01/25 14:43:36;;;;;;;;;;;;;;;;;;6129711;23;20003;-90
2023/01/25 14:46:02;;;;;;;;;;;;;;;;;;6153611;23;20011;-91
2023/01/25 14:48:28;;;;;;;;;;;;;;;;;;6129183;23;20181;-91
2023/01/25 14:50:54;;;;;;;;;;;;;;;;;;6129332;23;19916;-90
2023/01/25 14:53:20;;;;;;;;;;;;;;;;;;6153336;23;20024;-90
2023/01/25 14:58:15;;;;;;;;;;;;;;;;;;6154150;23;19917;-90
2023/01/25 15:00:40;;;;;;;;;;;;;;;;;;6129195;23;19955;-89
2023/01/25 15:03:06;;;;;;;;;;;;;;;;;;6129437;23;20250;-90
2023/01/25 15:05:32;;;;;;;;;;;;;;;;;;6129527;23;19966;-89
2023/01/25 15:07:58;;;;;;;;;;;;;;;;;;6129491;23;19944;-89
2023/01/25 15:13:11;;;;;;;;;;;;;;;;;;6153908;23;20223;-89
2023/01/25 15:15:37;;;;;;;;;;;;;;;;;;6105105;23;19916;-89
2023/01/25 15:18:09;;;;;;;;;;;;;;;;;;6104502;23;19923;-89
2023/01/25 15:20:35;;;;;;;;;;;;;;;;;;6102925;23;20308;-89
2023/01/25 15:23:01;;;;;;;;;;;;;;;;;;6104635;23;19964;-89
2023/01/25 15:25:27;;;;;;;;;;;;;;;;;;6103761;23;19921;-90
2023/01/25 15:27:53;;;;;;;;;;;;;;;;;;6104398;23;19924;-89
2023/01/25 15:30:19;;;;;;;;;;;;;;;;;;6104381;23;20047;-89
2023/01/25 15:32:45;;;;;;;;;;;;;;;;;;6104028;23;19951;-89
2023/01/25 15:35:11;;;;;;;;;;;;;;;;;;6104775;23;19921;-89
2023/01/25 15:37:37;;;;;;;;;;;;;;;;;;6104463;23;19924;-89
2023/01/25 15:40:03;;;;;;;;;;;;;;;;;;6103417;23;19916;-89
2023/01/25 15:42:30;;;;;;;;;;;;;;;;;;6128987;23;19967;-89
2023/01/25 15:44:56;;;;;;;;;;;;;;;;;;6104779;23;19926;-89
2023/01/25 15:47:22;;;;;;;;;;;;;;;;;;6104409;23;20254;-89
2023/01/25 15:49:52;;;;;;;;;;;;;;;;;;6103766;23;20354;-90
2023/01/25 15:52:19;;;;;;;;;;;;;;;;;;6103247;23;19917;-89
2023/01/25 15:54:45;;;;;;;;;;;;;;;;;;6104384;23;19979;-89
2023/01/25 15:59:49;;;;;;;;;;;;;;;;;;6128327;23;19924;-90
2023/01/25 16:02:15;;;;;;;;;;;;;;;;;;6104064;23;19920;-88
2023/01/25 16:04:41;;;;;;;;;;;;;;;;;;6128813;23;20284;-90
2023/01/25 16:07:07;;;;;;;;;;;;;;;;;;6104610;23;20350;-89
2023/01/25 16:09:32;;;;;;;;;;;;;;;;;;6103361;23;19916;-89
2023/01/25 16:11:58;;;;;;;;;;;;;;;;;;6104037;23;19920;-89
2023/01/25 16:14:27;;;;;;;;;;;;;;;;;;6117727;23;19916;-89
2023/01/25 16:16:53;;;;;;;;;;;;;;;;;;6128180;23;19921;-90
2023/01/25 16:19:20;;;;;;;;;;;;;;;;;;6128891;23;19916;-89
2023/01/25 16:21:46;;;;;;;;;;;;;;;;;;6128587;23;19920;-89
2023/01/25 16:24:13;;;;;;;;;;;;;;;;;;6128701;23;19924;-89
2023/01/25 16:26:39;;;;;;;;;;;;;;;;;;6128772;23;19928;-89
2023/01/25 16:29:05;;;;;;;;;;;;;;;;;;6128366;23;19920;-89
2023/01/25 16:31:31;;;;;;;;;;;;;;;;;;6128442;23;19928;-89
2023/01/25 16:33:57;;;;;;;;;;;;;;;;;;6129428;23;20314;-90
2023/01/25 16:36:23;;;;;;;;;;;;;;;;;;6129063;23;19924;-89
2023/01/25 16:38:49;;;;;;;;;;;;;;;;;;6128560;23;20374;-89
2023/01/25 16:41:15;;;;;;;;;;;;;;;;;;6153814;23;20370;-89
2023/01/25 16:43:41;;;;;;;;;;;;;;;;;;6128973;23;19917;-90
2023/01/25 16:46:06;;;;;;;;;;;;;;;;;;6153652;23;20600;-90
2023/01/25 16:48:32;;;;;;;;;;;;;;;;;;6153392;23;19916;-90
2023/01/25 16:53:44;;;;;;;;;;;;;;;;;;6153639;23;19916;-90
2023/01/25 16:56:09;;;;;;;;;;;;;;;;;;6127542;23;20358;-90
2023/01/25 17:01:11;;;;;;;;;;;;;;;;;;6153468;23;19983;-90
2023/01/25 17:03:37;;;;;;;;;;;;;;;;;;6129054;23;19955;-90
2023/01/25 17:06:03;;;;;;;;;;;;;;;;;;6129173;23;19923;-90
2023/01/25 17:08:29;;;;;;;;;;;;;;;;;;6129125;23;19916;-90
2023/01/25 17:10:56;;;;;;;;;;;;;;;;;;6128497;23;19917;-90
2023/01/25 17:13:22;;;;;;;;;;;;;;;;;;6128846;23;19991;-90
2023/01/25 17:15:48;;;;;;;;;;;;;;;;;;6129068;23;20307;-90
2023/01/25 17:18:13;;;;;;;;;;;;;;;;;;6129199;23;19964;-90